Carnival Victory — 3FFL8 — position and weather

sailwx.info

Track history (hours):
 
Tides and Currents Weather Stations Pressure Air Temp Water Temp Dewpoint Dewpoint Depression Visibility Wind Speed Wind Dir Waves Ship Positions

Carnival Victory

Operator: Carnival Cruise Lines

Last reported at 2018-Apr-26 01:29 UTC. Time now 2018-Apr-26 01:42 UTC.
Position N 20°29' W 086°59'.

Type: Passenger vessel. MMSI: 355263000.

Date/timePositionNaut miles runAvg speedWind from/ knotsBaromVisibWave heightAir tempDewpointWater temp
2018-Apr-26 01:29N 20°29' W 086°59'0 0.0
2018-Apr-26 00:59N 20°29' W 086°59'0 0.0
2018-Apr-26 00:29N 20°29' W 086°59'0 0.0
2018-Apr-25 23:56N 20°29' W 086°59'0 0.0
2018-Apr-25 23:29N 20°29' W 086°59'0 0.0
2018-Apr-25 22:59N 20°29' W 086°59'0 0.0
2018-Apr-25 22:26N 20°29' W 086°59'0 0.0
2018-Apr-25 21:59N 20°29' W 086°59'0 0.0
2018-Apr-25 21:26N 20°29' W 086°59'0 0.0
2018-Apr-25 20:59N 20°29' W 086°59'0 0.0
2018-Apr-25 20:29N 20°29' W 086°59'0 0.0
2018-Apr-25 19:59N 20°29' W 086°59'0 0.0
2018-Apr-25 19:29N 20°29' W 086°59'0 0.0
2018-Apr-25 18:59N 20°29' W 086°59'0 0.0
2018-Apr-25 18:29N 20°29' W 086°59'0 0.0
2018-Apr-25 17:59N 20°29' W 086°59'0 0.0
2018-Apr-25 17:29N 20°29' W 086°59'0 0.0
2018-Apr-25 16:59N 20°29' W 086°59'0 0.0
2018-Apr-25 16:29N 20°29' W 086°59'0 0.0
2018-Apr-25 15:56N 20°29' W 086°59'0 0.7
2018-Apr-25 15:30N 20°29' W 086°59'510.3
2018-Apr-25 15:00N 20°34' W 086°59'7915.7
2018-Apr-25 10:00N 21°24' W 085°54'40511.7 180 / 71014.527.0 26.023.228.0
2018-Apr-23 23:22N 25°12' W 079°49'514.8
2018-Apr-23 23:00N 25°17' W 079°48'714.7
2018-Apr-23 22:30N 25°25' W 079°47'714.7
2018-Apr-23 22:00N 25°32' W 079°46'713.8
2018-Apr-23 21:30N 25°38' W 079°49'815.4
2018-Apr-23 21:00N 25°43' W 079°56'714.2
2018-Apr-23 20:30N 25°46' W 080°03'510.3
2018-Apr-23 20:00N 25°46' W 080°09'1 1.7
2018-Apr-23 19:29N 25°47' W 080°10'0 0.0
2018-Apr-23 18:59N 25°47' W 080°10'0 0.0
2018-Apr-23 18:29N 25°47' W 080°10'0 0.0
2018-Apr-23 17:59N 25°47' W 080°10'0 0.0
2018-Apr-23 17:29N 25°47' W 080°10'0 0.0
2018-Apr-23 16:56N 25°47' W 080°10'0 0.0
2018-Apr-23 16:29N 25°47' W 080°10'0 0.0
2018-Apr-23 15:53N 25°47' W 080°10'0 0.0
2018-Apr-23 15:23N 25°47' W 080°10'0 0.0
2018-Apr-23 14:53N 25°47' W 080°10'0 0.0
2018-Apr-23 14:23N 25°47' W 080°10'0 0.0
2018-Apr-23 13:53N 25°47' W 080°10'0 0.0
2018-Apr-23 13:23N 25°47' W 080°10'0 0.0
2018-Apr-23 12:59N 25°47' W 080°10'0 0.0
2018-Apr-23 12:29N 25°47' W 080°10'0 0.0
2018-Apr-23 11:59N 25°47' W 080°10'0 0.0
2018-Apr-23 11:29N 25°47' W 080°10'0 0.0
2018-Apr-23 10:56N 25°47' W 080°10'0 0.0
2018-Apr-23 10:29N 25°47' W 080°10'0 0.0
2018-Apr-23 09:59N 25°47' W 080°10'0 0.0
2018-Apr-23 09:29N 25°47' W 080°10'0 0.1
2018-Apr-23 08:59N 25°47' W 080°10'0 1.0
2018-Apr-23 08:30N 25°47' W 080°11'4 8.1
2018-Apr-23 08:00N 25°46' W 080°06'3 6.6
2018-Apr-23 07:30N 25°47' W 080°03'4 7.8
2018-Apr-23 07:00N 25°48' W 079°59'5 9.5
2018-Apr-23 06:30N 25°50' W 079°54'4 8.9
2018-Apr-23 06:01N 25°51' W 079°49'5 9.7
2018-Apr-23 05:30N 25°53' W 079°44'510.8
2018-Apr-23 05:00N 25°55' W 079°39'5 9.8
2018-Apr-23 04:30N 25°60' W 079°36'5 9.7
2018-Apr-23 04:00N 26°04' W 079°33'5 9.2
2018-Apr-23 03:30N 26°08' W 079°30'5 9.3
2018-Apr-23 03:00N 26°11' W 079°27'5 9.4
2018-Apr-23 02:30N 26°15' W 079°25'5 9.9
2018-Apr-23 02:00N 26°19' W 079°21'101 2.5
2018-Apr-21 09:00N 25°42' W 077°36'9211.8 080 / 111018.510.8 25.022.227.0
2018-Apr-21 01:13N 26°16' W 079°11'211.9
2018-Apr-21 01:00N 26°15' W 079°13'612.0
2018-Apr-21 00:30N 26°12' W 079°19'611.8
2018-Apr-21 00:00N 26°09' W 079°24'611.5
2018-Apr-20 23:30N 26°05' W 079°30'510.4
2018-Apr-20 23:00N 26°03' W 079°35'5312.0
2018-Apr-20 23:00N 26°00' W 079°30'918.1 020 / 131018.710.8 26.018.627.0
2018-Apr-20 22:28N 25°59' W 079°40'612.2
2018-Apr-20 22:00N 25°56' W 079°46'714.2
2018-Apr-20 21:30N 25°52' W 079°52'5 9.2
2018-Apr-20 21:00N 25°50' W 079°57'714.8
2018-Apr-20 20:30N 25°46' W 080°04'510.1
2018-Apr-20 20:00N 25°46' W 080°10'1 1.0
2018-Apr-20 19:30N 25°47' W 080°10'0 0.0
2018-Apr-20 19:00N 25°47' W 080°10'0 0.0
2018-Apr-20 18:30N 25°47' W 080°10'0 0.0
2018-Apr-20 18:00N 25°47' W 080°10'0 0.0
2018-Apr-20 17:30N 25°47' W 080°10'0 0.0
2018-Apr-20 17:00N 25°47' W 080°10'0 0.0
2018-Apr-20 16:30N 25°47' W 080°10'0 0.0
2018-Apr-20 16:00N 25°47' W 080°10'0 0.0
2018-Apr-20 15:30N 25°47' W 080°10'0 0.0
2018-Apr-20 15:00N 25°47' W 080°10'0 0.0
2018-Apr-20 14:30N 25°47' W 080°10'0 0.0
2018-Apr-20 14:00N 25°47' W 080°10'0 0.0
2018-Apr-20 13:27N 25°47' W 080°10'0 0.0
2018-Apr-20 12:57N 25°47' W 080°10'0 0.0
2018-Apr-20 12:30N 25°47' W 080°10'0 0.0
2018-Apr-20 12:00N 25°47' W 080°10'0 0.0
2018-Apr-20 11:30N 25°47' W 080°10'0 0.0
2018-Apr-20 11:00N 25°47' W 080°10'1 1.3
2018-Apr-20 10:30N 25°47' W 080°11'3 6.3
2018-Apr-20 09:59N 25°46' W 080°07'511.2
2018-Apr-20 09:30N 25°47' W 080°02'612.1
2018-Apr-20 09:00N 25°43' W 079°56'611.8
2018-Apr-20 08:29N 25°37' W 079°55'713.7
2018-Apr-20 08:00N 25°30' W 079°54'714.7
2018-Apr-20 07:30N 25°23' W 079°55'2315.5
2018-Apr-20 06:00N 25°00' W 080°00'33216.6 120 / 31019.7 5.4 24.018.027.1
2018-Apr-19 10:00N 22°12' W 085°12'12818.5 340 / 51017.710.8 25.022.228.0
2018-Apr-19 03:05N 20°43' W 086°51'319.5
2018-Apr-19 02:57N 20°41' W 086°52'819.3
2018-Apr-19 02:30N 20°36' W 086°59'714.0
2018-Apr-19 02:00N 20°29' W 086°59'0 0.5
2018-Apr-19 01:28N 20°29' W 086°59'0 0.0
2018-Apr-19 00:55N 20°29' W 086°59'0 0.0
2018-Apr-19 00:28N 20°29' W 086°59'0 0.0
2018-Apr-18 23:55N 20°29' W 086°59'0 0.0
2018-Apr-18 23:28N 20°29' W 086°59'0 0.0
2018-Apr-18 22:58N 20°29' W 086°59'0 0.0
2018-Apr-18 22:28N 20°29' W 086°59'0 0.0
2018-Apr-18 21:58N 20°29' W 086°59'0 0.0
2018-Apr-18 21:28N 20°29' W 086°59'0 0.0
2018-Apr-18 20:55N 20°29' W 086°59'0 0.0
2018-Apr-18 20:28N 20°29' W 086°59'0 0.0
2018-Apr-18 19:58N 20°29' W 086°59'0 0.0
2018-Apr-18 19:28N 20°29' W 086°59'0 0.0
2018-Apr-18 18:58N 20°29' W 086°59'0 0.0
2018-Apr-18 18:28N 20°29' W 086°59'0 0.0
2018-Apr-18 17:58N 20°29' W 086°59'0 0.0
2018-Apr-18 17:28N 20°29' W 086°59'0 0.0
2018-Apr-18 16:58N 20°29' W 086°59'0 0.0
2018-Apr-18 16:28N 20°29' W 086°59'0 0.0
2018-Apr-18 16:00N 20°29' W 086°59'0 0.0
2018-Apr-18 15:29N 20°29' W 086°59'2 5.0
2018-Apr-18 15:00N 20°31' W 086°60'611.3
2018-Apr-18 14:30N 20°36' W 086°58'39812.2
2018-Apr-17 06:00N 24°18' W 081°00'1514.7 340 / 251019.710.8 21.016.426.7
2018-Apr-17 04:57N 24°23' W 080°44'1214.5
2018-Apr-17 04:07N 24°29' W 080°33'214.1
2018-Apr-17 04:00N 24°30' W 080°31'1114.2
2018-Apr-17 03:13N 24°37' W 080°21'314.2
2018-Apr-17 02:59N 24°38' W 080°19'4313.5
2018-Apr-16 23:48N 25°12' W 079°49'414.5
2018-Apr-16 23:30N 25°17' W 079°48'714.2
2018-Apr-16 23:00N 25°24' W 079°47'714.1
2018-Apr-16 22:30N 25°31' W 079°46'713.7
2018-Apr-16 22:00N 25°37' W 079°48'815.3
2018-Apr-16 21:30N 25°42' W 079°55'815.0
2018-Apr-16 21:00N 25°45' W 080°03'510.8
2018-Apr-16 20:30N 25°46' W 080°08'2 4.7
2018-Apr-16 20:00N 25°47' W 080°11'1 1.2
2018-Apr-16 19:30N 25°47' W 080°10'0 0.0
2018-Apr-16 18:57N 25°47' W 080°10'0 0.0
2018-Apr-16 18:30N 25°47' W 080°10'0 0.0
2018-Apr-16 18:00N 25°47' W 080°10'0 0.0
2018-Apr-16 17:30N 25°47' W 080°10'0 0.0
2018-Apr-16 16:57N 25°47' W 080°10'0 0.0
2018-Apr-16 16:27N 25°47' W 080°10'0 0.0
2018-Apr-16 16:00N 25°47' W 080°10'0 0.0
2018-Apr-16 15:30N 25°47' W 080°10'0 0.0
2018-Apr-16 15:00N 25°47' W 080°10'0 0.0
2018-Apr-16 14:30N 25°47' W 080°10'0 0.0
2018-Apr-16 14:00N 25°47' W 080°10'0 0.0
2018-Apr-16 13:30N 25°47' W 080°10'0 0.0
2018-Apr-16 13:00N 25°47' W 080°10'0 0.0
2018-Apr-16 12:30N 25°47' W 080°10'0 0.0
2018-Apr-16 12:00N 25°47' W 080°10'0 0.0
2018-Apr-16 11:30N 25°47' W 080°10'0 0.0
2018-Apr-16 11:00N 25°47' W 080°10'0 0.0
2018-Apr-16 10:30N 25°47' W 080°10'2 4.8
2018-Apr-16 10:00N 25°46' W 080°08'5 9.9
2018-Apr-16 09:30N 25°47' W 080°02'3 6.9
2018-Apr-16 09:00N 25°48' W 079°59'4 7.1
2018-Apr-16 08:30N 25°49' W 079°55'4 7.4
2018-Apr-16 08:00N 25°51' W 079°51'4 8.5
2018-Apr-16 07:30N 25°52' W 079°47'4 8.6
2018-Apr-16 07:00N 25°54' W 079°42'5 9.3
2018-Apr-16 06:30N 25°56' W 079°38'5 9.6
2018-Apr-16 06:00N 26°00' W 079°35'5302.7
2018-Apr-16 06:00N 26°00' W 079°30'510.0 210 / 251016.7 5.4 25.022.227.6
2018-Apr-16 05:30N 26°04' W 079°32'4 8.5
2018-Apr-16 05:00N 26°08' W 079°30'4 8.8
2018-Apr-16 04:30N 26°12' W 079°27'4 8.3
2018-Apr-16 04:00N 26°15' W 079°25'4 8.0
2018-Apr-16 03:30N 26°18' W 079°22'510.1
2018-Apr-16 03:00N 26°19' W 079°16'511.0
2018-Apr-16 02:30N 26°19' W 079°10'1010.5
2018-Apr-16 01:33N 26°17' W 078°59'110.3
2018-Apr-16 01:30N 26°17' W 078°59'  
Track history (hours):
 
Tides and Currents Weather Stations Pressure Air Temp Water Temp Dewpoint Dewpoint Depression Visibility Wind Speed Wind Dir Waves Ship Positions

Carnival Victory

Operator: Carnival Cruise Lines

Last reported at 2018-Apr-26 01:29 UTC. Time now 2018-Apr-26 01:42 UTC.
Position N 20°29' W 086°59'.

Type: Passenger vessel. MMSI: 355263000.

Date/timePositionNaut miles runAvg speedWind from/ knotsBaromVisibWave heightAir tempDewpointWater temp
2018-Apr-26 01:29N 20°29' W 086°59'0 0.0
2018-Apr-26 00:59N 20°29' W 086°59'0 0.0
2018-Apr-26 00:29N 20°29' W 086°59'0 0.0
2018-Apr-25 23:56N 20°29' W 086°59'0 0.0
2018-Apr-25 23:29N 20°29' W 086°59'0 0.0
2018-Apr-25 22:59N 20°29' W 086°59'0 0.0
2018-Apr-25 22:26N 20°29' W 086°59'0 0.0
2018-Apr-25 21:59N 20°29' W 086°59'0 0.0
2018-Apr-25 21:26N 20°29' W 086°59'0 0.0
2018-Apr-25 20:59N 20°29' W 086°59'0 0.0
2018-Apr-25 20:29N 20°29' W 086°59'0 0.0
2018-Apr-25 19:59N 20°29' W 086°59'0 0.0
2018-Apr-25 19:29N 20°29' W 086°59'0 0.0
2018-Apr-25 18:59N 20°29' W 086°59'0 0.0
2018-Apr-25 18:29N 20°29' W 086°59'0 0.0
2018-Apr-25 17:59N 20°29' W 086°59'0 0.0
2018-Apr-25 17:29N 20°29' W 086°59'0 0.0
2018-Apr-25 16:59N 20°29' W 086°59'0 0.0
2018-Apr-25 16:29N 20°29' W 086°59'0 0.0
2018-Apr-25 15:56N 20°29' W 086°59'0 0.7
2018-Apr-25 15:30N 20°29' W 086°59'510.3
2018-Apr-25 15:00N 20°34' W 086°59'7915.7
2018-Apr-25 10:00N 21°24' W 085°54'40511.7 180 / 71014.527.0 26.023.228.0
2018-Apr-23 23:22N 25°12' W 079°49'514.8
2018-Apr-23 23:00N 25°17' W 079°48'714.7
2018-Apr-23 22:30N 25°25' W 079°47'714.7
2018-Apr-23 22:00N 25°32' W 079°46'713.8
2018-Apr-23 21:30N 25°38' W 079°49'815.4
2018-Apr-23 21:00N 25°43' W 079°56'714.2
2018-Apr-23 20:30N 25°46' W 080°03'510.3
2018-Apr-23 20:00N 25°46' W 080°09'1 1.7
2018-Apr-23 19:29N 25°47' W 080°10'0 0.0
2018-Apr-23 18:59N 25°47' W 080°10'0 0.0
2018-Apr-23 18:29N 25°47' W 080°10'0 0.0
2018-Apr-23 17:59N 25°47' W 080°10'0 0.0
2018-Apr-23 17:29N 25°47' W 080°10'0 0.0
2018-Apr-23 16:56N 25°47' W 080°10'0 0.0
2018-Apr-23 16:29N 25°47' W 080°10'0 0.0
2018-Apr-23 15:53N 25°47' W 080°10'0 0.0
2018-Apr-23 15:23N 25°47' W 080°10'0 0.0
2018-Apr-23 14:53N 25°47' W 080°10'0 0.0
2018-Apr-23 14:23N 25°47' W 080°10'0 0.0
2018-Apr-23 13:53N 25°47' W 080°10'0 0.0
2018-Apr-23 13:23N 25°47' W 080°10'0 0.0
2018-Apr-23 12:59N 25°47' W 080°10'0 0.0
2018-Apr-23 12:29N 25°47' W 080°10'0 0.0
2018-Apr-23 11:59N 25°47' W 080°10'0 0.0
2018-Apr-23 11:29N 25°47' W 080°10'0 0.0
2018-Apr-23 10:56N 25°47' W 080°10'0 0.0
2018-Apr-23 10:29N 25°47' W 080°10'0 0.0
2018-Apr-23 09:59N 25°47' W 080°10'0 0.0
2018-Apr-23 09:29N 25°47' W 080°10'0 0.1
2018-Apr-23 08:59N 25°47' W 080°10'0 1.0
2018-Apr-23 08:30N 25°47' W 080°11'4 8.1
2018-Apr-23 08:00N 25°46' W 080°06'3 6.6
2018-Apr-23 07:30N 25°47' W 080°03'4 7.8
2018-Apr-23 07:00N 25°48' W 079°59'5 9.5
2018-Apr-23 06:30N 25°50' W 079°54'4 8.9
2018-Apr-23 06:01N 25°51' W 079°49'5 9.7
2018-Apr-23 05:30N 25°53' W 079°44'510.8
2018-Apr-23 05:00N 25°55' W 079°39'5 9.8
2018-Apr-23 04:30N 25°60' W 079°36'5 9.7
2018-Apr-23 04:00N 26°04' W 079°33'5 9.2
2018-Apr-23 03:30N 26°08' W 079°30'5 9.3
2018-Apr-23 03:00N 26°11' W 079°27'5 9.4
2018-Apr-23 02:30N 26°15' W 079°25'5 9.9
2018-Apr-23 02:00N 26°19' W 079°21'101 2.5
2018-Apr-21 09:00N 25°42' W 077°36'9211.8 080 / 111018.510.8 25.022.227.0
2018-Apr-21 01:13N 26°16' W 079°11'211.9
2018-Apr-21 01:00N 26°15' W 079°13'612.0
2018-Apr-21 00:30N 26°12' W 079°19'611.8
2018-Apr-21 00:00N 26°09' W 079°24'611.5
2018-Apr-20 23:30N 26°05' W 079°30'510.4
2018-Apr-20 23:00N 26°03' W 079°35'5312.0
2018-Apr-20 23:00N 26°00' W 079°30'918.1 020 / 131018.710.8 26.018.627.0
2018-Apr-20 22:28N 25°59' W 079°40'612.2
2018-Apr-20 22:00N 25°56' W 079°46'714.2
2018-Apr-20 21:30N 25°52' W 079°52'5 9.2
2018-Apr-20 21:00N 25°50' W 079°57'714.8
2018-Apr-20 20:30N 25°46' W 080°04'510.1
2018-Apr-20 20:00N 25°46' W 080°10'1 1.0
2018-Apr-20 19:30N 25°47' W 080°10'0 0.0
2018-Apr-20 19:00N 25°47' W 080°10'0 0.0
2018-Apr-20 18:30N 25°47' W 080°10'0 0.0
2018-Apr-20 18:00N 25°47' W 080°10'0 0.0
2018-Apr-20 17:30N 25°47' W 080°10'0 0.0
2018-Apr-20 17:00N 25°47' W 080°10'0 0.0
2018-Apr-20 16:30N 25°47' W 080°10'0 0.0
2018-Apr-20 16:00N 25°47' W 080°10'0 0.0
2018-Apr-20 15:30N 25°47' W 080°10'0 0.0
2018-Apr-20 15:00N 25°47' W 080°10'0 0.0
2018-Apr-20 14:30N 25°47' W 080°10'0 0.0
2018-Apr-20 14:00N 25°47' W 080°10'0 0.0
2018-Apr-20 13:27N 25°47' W 080°10'0 0.0
2018-Apr-20 12:57N 25°47' W 080°10'0 0.0
2018-Apr-20 12:30N 25°47' W 080°10'0 0.0
2018-Apr-20 12:00N 25°47' W 080°10'0 0.0
2018-Apr-20 11:30N 25°47' W 080°10'0 0.0
2018-Apr-20 11:00N 25°47' W 080°10'1 1.3
2018-Apr-20 10:30N 25°47' W 080°11'3 6.3
2018-Apr-20 09:59N 25°46' W 080°07'511.2
2018-Apr-20 09:30N 25°47' W 080°02'612.1
2018-Apr-20 09:00N 25°43' W 079°56'611.8
2018-Apr-20 08:29N 25°37' W 079°55'713.7
2018-Apr-20 08:00N 25°30' W 079°54'714.7
2018-Apr-20 07:30N 25°23' W 079°55'2315.5
2018-Apr-20 06:00N 25°00' W 080°00'33216.6 120 / 31019.7 5.4 24.018.027.1
2018-Apr-19 10:00N 22°12' W 085°12'12818.5 340 / 51017.710.8 25.022.228.0
2018-Apr-19 03:05N 20°43' W 086°51'319.5
2018-Apr-19 02:57N 20°41' W 086°52'819.3
2018-Apr-19 02:30N 20°36' W 086°59'714.0
2018-Apr-19 02:00N 20°29' W 086°59'0 0.5
2018-Apr-19 01:28N 20°29' W 086°59'0 0.0
2018-Apr-19 00:55N 20°29' W 086°59'0 0.0
2018-Apr-19 00:28N 20°29' W 086°59'0 0.0
2018-Apr-18 23:55N 20°29' W 086°59'0 0.0
2018-Apr-18 23:28N 20°29' W 086°59'0 0.0
2018-Apr-18 22:58N 20°29' W 086°59'0 0.0
2018-Apr-18 22:28N 20°29' W 086°59'0 0.0
2018-Apr-18 21:58N 20°29' W 086°59'0 0.0
2018-Apr-18 21:28N 20°29' W 086°59'0 0.0
2018-Apr-18 20:55N 20°29' W 086°59'0 0.0
2018-Apr-18 20:28N 20°29' W 086°59'0 0.0
2018-Apr-18 19:58N 20°29' W 086°59'0 0.0
2018-Apr-18 19:28N 20°29' W 086°59'0 0.0
2018-Apr-18 18:58N 20°29' W 086°59'0 0.0
2018-Apr-18 18:28N 20°29' W 086°59'0 0.0
2018-Apr-18 17:58N 20°29' W 086°59'0 0.0
2018-Apr-18 17:28N 20°29' W 086°59'0 0.0
2018-Apr-18 16:58N 20°29' W 086°59'0 0.0
2018-Apr-18 16:28N 20°29' W 086°59'0 0.0
2018-Apr-18 16:00N 20°29' W 086°59'0 0.0
2018-Apr-18 15:29N 20°29' W 086°59'2 5.0
2018-Apr-18 15:00N 20°31' W 086°60'611.3
2018-Apr-18 14:30N 20°36' W 086°58'39812.2
2018-Apr-17 06:00N 24°18' W 081°00'1514.7 340 / 251019.710.8 21.016.426.7
2018-Apr-17 04:57N 24°23' W 080°44'1214.5
2018-Apr-17 04:07N 24°29' W 080°33'214.1
2018-Apr-17 04:00N 24°30' W 080°31'1114.2
2018-Apr-17 03:13N 24°37' W 080°21'314.2
2018-Apr-17 02:59N 24°38' W 080°19'4313.5
2018-Apr-16 23:48N 25°12' W 079°49'414.5
2018-Apr-16 23:30N 25°17' W 079°48'714.2
2018-Apr-16 23:00N 25°24' W 079°47'714.1
2018-Apr-16 22:30N 25°31' W 079°46'713.7
2018-Apr-16 22:00N 25°37' W 079°48'815.3
2018-Apr-16 21:30N 25°42' W 079°55'815.0
2018-Apr-16 21:00N 25°45' W 080°03'510.8
2018-Apr-16 20:30N 25°46' W 080°08'2 4.7
2018-Apr-16 20:00N 25°47' W 080°11'1 1.2
2018-Apr-16 19:30N 25°47' W 080°10'0 0.0
2018-Apr-16 18:57N 25°47' W 080°10'0 0.0
2018-Apr-16 18:30N 25°47' W 080°10'0 0.0
2018-Apr-16 18:00N 25°47' W 080°10'0 0.0
2018-Apr-16 17:30N 25°47' W 080°10'0 0.0
2018-Apr-16 16:57N 25°47' W 080°10'0 0.0
2018-Apr-16 16:27N 25°47' W 080°10'0 0.0
2018-Apr-16 16:00N 25°47' W 080°10'0 0.0
2018-Apr-16 15:30N 25°47' W 080°10'0 0.0
2018-Apr-16 15:00N 25°47' W 080°10'0 0.0
2018-Apr-16 14:30N 25°47' W 080°10'0 0.0
2018-Apr-16 14:00N 25°47' W 080°10'0 0.0
2018-Apr-16 13:30N 25°47' W 080°10'0 0.0
2018-Apr-16 13:00N 25°47' W 080°10'0 0.0
2018-Apr-16 12:30N 25°47' W 080°10'0 0.0
2018-Apr-16 12:00N 25°47' W 080°10'0 0.0
2018-Apr-16 11:30N 25°47' W 080°10'0 0.0
2018-Apr-16 11:00N 25°47' W 080°10'0 0.0
2018-Apr-16 10:30N 25°47' W 080°10'2 4.8
2018-Apr-16 10:00N 25°46' W 080°08'5 9.9
2018-Apr-16 09:30N 25°47' W 080°02'3 6.9
2018-Apr-16 09:00N 25°48' W 079°59'4 7.1
2018-Apr-16 08:30N 25°49' W 079°55'4 7.4
2018-Apr-16 08:00N 25°51' W 079°51'4 8.5
2018-Apr-16 07:30N 25°52' W 079°47'4 8.6
2018-Apr-16 07:00N 25°54' W 079°42'5 9.3
2018-Apr-16 06:30N 25°56' W 079°38'5 9.6
2018-Apr-16 06:00N 26°00' W 079°35'5302.7
2018-Apr-16 06:00N 26°00' W 079°30'510.0 210 / 251016.7 5.4 25.022.227.6
2018-Apr-16 05:30N 26°04' W 079°32'4 8.5
2018-Apr-16 05:00N 26°08' W 079°30'4 8.8
2018-Apr-16 04:30N 26°12' W 079°27'4 8.3
2018-Apr-16 04:00N 26°15' W 079°25'4 8.0
2018-Apr-16 03:30N 26°18' W 079°22'510.1
2018-Apr-16 03:00N 26°19' W 079°16'511.0
2018-Apr-16 02:30N 26°19' W 079°10'1010.5
2018-Apr-16 01:33N 26°17' W 078°59'110.3
2018-Apr-16 01:30N 26°17' W 078°59'  

Dump ship's entire track history